Time;durP1;ratioP1;P1;durP2;ratioP2;P2;SDS_P1;SDS_P2;PMS_P1;PMS_P2;Temp;Humidity;BMP_temperature;BMP_pressure;BME280_temperature;BME280_humidity;BME280_pressure;Samples;Min_cycle;Max_cycle;Signal;HPM_P1;HPM_P2
2022/06/06 00:01:58;;;;;;;5.43;5.03;;;18.00;99.90;;;;;;5092976;28;20941;-60
2022/06/06 00:04:28;;;;;;;5.70;5.30;;;18.00;99.90;;;;;;5093300;28;20976;-60
2022/06/06 00:06:57;;;;;;;5.53;5.13;;;18.00;99.90;;;;;;5093446;28;20447;-59
2022/06/06 00:09:25;;;;;;;5.00;4.40;;;18.00;99.90;;;;;;5093348;28;20999;-59
2022/06/06 00:11:56;;;;;;;4.83;4.43;;;18.00;99.90;;;;;;5093011;28;20504;-58
2022/06/06 00:14:23;;;;;;;4.90;4.50;;;18.00;99.90;;;;;;5093484;28;20501;-59
2022/06/06 00:16:51;;;;;;;4.20;3.87;;;18.00;99.90;;;;;;5093571;28;20502;-59
2022/06/06 00:19:18;;;;;;;7.23;4.93;;;18.00;99.90;;;;;;5093068;28;20451;-60
2022/06/06 00:21:46;;;;;;;5.03;4.63;;;17.90;99.90;;;;;;5093187;28;20532;-61
2022/06/06 00:24:14;;;;;;;4.70;4.23;;;17.90;99.90;;;;;;5093720;28;20495;-60
2022/06/06 00:26:42;;;;;;;4.37;4.07;;;17.80;99.90;;;;;;5097689;28;20514;-58
2022/06/06 00:29:14;;;;;;;4.80;4.40;;;17.80;99.90;;;;;;5097568;28;20448;-60
2022/06/06 00:37:13;;;;;;;5.00;4.43;;;17.70;99.90;;;;;;5097297;28;20913;-61
2022/06/06 00:39:41;;;;;;;5.37;4.87;;;17.70;99.90;;;;;;5097416;28;20470;-61
2022/06/06 00:42:14;;;;;;;5.37;4.90;;;17.60;99.90;;;;;;5097043;28;20512;-61
2022/06/06 00:44:42;;;;;;;5.60;5.07;;;17.50;99.90;;;;;;5097237;28;20480;-59
2022/06/06 00:47:19;;;;;;;5.67;5.17;;;17.50;99.90;;;;;;5096718;28;20448;-58
2022/06/06 00:49:50;;;;;;;6.37;5.70;;;17.40;99.90;;;;;;5096795;28;20799;-59
2022/06/06 00:52:21;;;;;;;6.00;5.50;;;17.40;99.90;;;;;;5097051;28;20864;-59
2022/06/06 00:54:51;;;;;;;6.30;5.80;;;17.40;99.90;;;;;;5097878;28;20881;-60
2022/06/06 00:57:24;;;;;;;6.63;6.13;;;17.30;99.90;;;;;;5096893;28;20513;-60
2022/06/06 00:59:54;;;;;;;5.80;5.30;;;17.30;99.90;;;;;;5096938;28;20803;-60
2022/06/06 01:02:22;;;;;;;6.40;5.90;;;17.30;99.90;;;;;;5096415;28;20510;-60
2022/06/06 01:04:50;;;;;;;5.70;5.20;;;17.30;99.90;;;;;;5097305;28;20455;-60
2022/06/06 01:07:17;;;;;;;6.93;6.33;;;17.30;99.90;;;;;;5097474;28;20870;-58
2022/06/06 01:09:45;;;;;;;5.47;4.97;;;17.30;99.90;;;;;;5097056;28;20547;-59
2022/06/06 01:12:15;;;;;;;5.53;5.03;;;17.30;99.90;;;;;;5096910;28;20463;-58
2022/06/06 01:14:46;;;;;;;6.17;5.67;;;17.30;99.90;;;;;;5096345;28;20569;-59
2022/06/06 01:17:24;;;;;;;5.80;5.40;;;17.30;99.90;;;;;;5096422;28;20459;-59
2022/06/06 01:20:07;;;;;;;6.67;6.07;;;17.30;99.90;;;;;;5096912;28;20418;-59
2022/06/06 01:23:02;;;;;;;5.30;4.90;;;17.40;99.90;;;;;;5096486;28;20540;-59
2022/06/06 01:25:53;;;;;;;5.43;5.03;;;17.40;99.90;;;;;;5096853;28;20459;-59
2022/06/06 01:28:54;;;;;;;6.27;5.70;;;17.40;99.90;;;;;;5096486;28;20431;-59
2022/06/06 01:31:29;;;;;;;6.57;6.00;;;17.40;99.90;;;;;;5076197;28;20554;-59
2022/06/06 01:33:58;;;;;;;5.57;5.17;;;17.50;99.90;;;;;;5096811;28;20469;-59
2022/06/06 01:36:29;;;;;;;5.97;5.47;;;17.50;99.90;;;;;;5095404;28;20439;-59
2022/06/06 01:38:58;;;;;;;5.50;5.07;;;17.50;99.90;;;;;;5095944;28;20439;-59
2022/06/06 01:41:35;;;;;;;6.33;5.83;;;17.50;99.90;;;;;;5096068;28;20499;-59
2022/06/06 01:44:09;;;;;;;6.07;5.57;;;17.50;99.90;;;;;;5095879;28;20441;-59
2022/06/06 01:46:38;;;;;;;6.73;6.23;;;17.60;99.90;;;;;;5095721;28;20434;-59
2022/06/06 01:49:08;;;;;;;5.87;5.37;;;17.60;99.90;;;;;;5095668;28;20501;-59
2022/06/06 01:51:35;;;;;;;6.60;6.10;;;17.60;99.90;;;;;;5096135;28;20516;-59
2022/06/06 01:54:02;;;;;;;6.60;5.90;;;17.60;99.90;;;;;;5095624;28;20438;-59
2022/06/06 01:56:34;;;;;;;6.47;5.97;;;17.60;99.90;;;;;;5095815;28;20991;-58
2022/06/06 01:59:02;;;;;;;7.77;7.07;;;17.60;99.90;;;;;;5095705;28;20902;-60
2022/06/06 02:01:31;;;;;;;6.20;5.70;;;17.60;99.90;;;;;;5095432;28;20455;-59
2022/06/06 02:03:58;;;;;;;7.87;7.17;;;17.60;99.90;;;;;;5120192;22;20493;-60
2022/06/06 02:06:26;;;;;;;8.37;7.73;;;17.60;99.90;;;;;;5095320;28;20456;-61
2022/06/06 02:08:54;;;;;;;7.33;6.63;;;17.60;99.90;;;;;;5095174;28;20447;-60
2022/06/06 02:11:21;;;;;;;8.97;8.17;;;17.60;99.90;;;;;;5095524;28;20855;-61
2022/06/06 02:13:48;;;;;;;8.87;8.13;;;17.60;99.90;;;;;;5095267;28;20880;-62
2022/06/06 02:16:16;;;;;;;9.57;8.77;;;17.50;99.90;;;;;;5094889;28;20588;-61
2022/06/06 02:18:45;;;;;;;11.00;10.00;;;17.50;99.90;;;;;;5095246;28;20441;-60
2022/06/06 02:21:12;;;;;;;11.17;10.17;;;17.50;99.90;;;;;;5094904;28;20448;-61
2022/06/06 02:23:39;;;;;;;10.93;9.83;;;17.50;99.90;;;;;;5095065;28;20473;-61
2022/06/06 02:26:07;;;;;;;11.00;10.10;;;17.60;99.90;;;;;;5095146;28;20437;-61
2022/06/06 02:28:34;;;;;;;11.57;10.63;;;17.50;99.90;;;;;;5095569;28;20457;-61
2022/06/06 02:31:01;;;;;;;12.40;11.30;;;17.60;99.90;;;;;;5095456;28;20442;-61
2022/06/06 02:33:29;;;;;;;13.57;12.27;;;17.60;99.90;;;;;;5095322;28;20467;-60
2022/06/06 02:36:00;;;;;;;14.70;12.97;;;17.60;99.90;;;;;;5095168;28;20501;-60
2022/06/06 02:38:28;;;;;;;14.33;12.90;;;17.60;99.90;;;;;;5094837;28;20489;-60
2022/06/06 02:41:07;;;;;;;16.47;14.33;;;17.60;99.90;;;;;;5094663;28;20478;-61
2022/06/06 02:43:35;;;;;;;15.53;13.93;;;17.60;99.90;;;;;;5094473;28;20480;-61
2022/06/06 02:46:03;;;;;;;17.53;14.03;;;17.60;99.90;;;;;;5094858;28;20477;-61
2022/06/06 02:48:31;;;;;;;16.60;14.80;;;17.60;99.90;;;;;;5093292;28;20453;-60
2022/06/06 02:51:00;;;;;;;15.90;14.30;;;17.60;99.90;;;;;;5094754;28;20808;-61
2022/06/06 02:53:28;;;;;;;17.30;15.50;;;17.50;99.90;;;;;;5094238;28;20975;-61
2022/06/06 02:55:56;;;;;;;16.30;13.97;;;17.50;99.90;;;;;;5094674;28;20836;-61
2022/06/06 02:58:24;;;;;;;17.23;15.53;;;17.50;99.90;;;;;;5094248;28;20459;-61
2022/06/06 03:00:57;;;;;;;17.63;15.80;;;17.50;99.90;;;;;;5094523;28;20484;-62
2022/06/06 03:03:24;;;;;;;18.20;16.27;;;17.40;99.90;;;;;;5094210;28;20473;-61
2022/06/06 03:06:03;;;;;;;18.00;16.20;;;17.40;99.90;;;;;;5094172;28;20481;-61
2022/06/06 03:08:55;;;;;;;17.20;15.50;;;17.30;99.90;;;;;;5094423;28;20423;-60
2022/06/06 03:11:45;;;;;;;17.23;15.27;;;17.30;99.90;;;;;;5094160;28;20423;-62
2022/06/06 03:14:49;;;;;;;15.80;14.10;;;17.30;99.90;;;;;;5094106;28;20845;-61
2022/06/06 03:23:53;;;;;;;15.40;13.90;;;17.40;99.90;;;;;;5093814;28;20446;-62
2022/06/06 03:26:32;;;;;;;16.60;15.00;;;17.40;99.90;;;;;;5087024;28;20530;-61
2022/06/06 03:29:20;;;;;;;15.60;13.87;;;17.40;99.90;;;;;;5093901;28;20427;-61
2022/06/06 03:31:55;;;;;;;17.50;14.63;;;17.40;99.90;;;;;;5093866;28;20435;-60
2022/06/06 03:34:31;;;;;;;14.40;12.97;;;17.40;99.90;;;;;;5093654;28;20488;-61
2022/06/06 03:37:06;;;;;;;14.37;13.00;;;17.50;99.90;;;;;;5093541;28;20446;-61
2022/06/06 03:39:43;;;;;;;14.47;12.97;;;17.50;99.90;;;;;;5093875;28;20460;-62
2022/06/06 03:42:14;;;;;;;13.60;12.30;;;17.50;99.90;;;;;;5093926;28;20425;-64
2022/06/06 03:45:02;;;;;;;13.40;12.10;;;17.50;99.90;;;;;;5093747;28;20442;-64
2022/06/06 03:47:37;;;;;;;13.77;12.47;;;17.60;99.90;;;;;;5093738;28;20429;-64
2022/06/06 03:50:14;;;;;;;14.37;12.90;;;17.60;99.90;;;;;;5093417;28;20459;-63
2022/06/06 03:52:49;;;;;;;14.43;13.03;;;17.60;99.90;;;;;;5093683;28;20468;-63
2022/06/06 03:55:33;;;;;;;12.70;11.40;;;17.70;99.90;;;;;;5093654;28;20872;-62
2022/06/06 03:58:04;;;;;;;13.53;12.13;;;17.70;99.90;;;;;;5093394;28;20434;-63
2022/06/06 04:00:34;;;;;;;16.20;12.77;;;17.70;99.90;;;;;;5093048;28;20514;-61
2022/06/06 04:03:05;;;;;;;14.40;12.90;;;17.70;99.90;;;;;;5092488;28;20494;-63
2022/06/06 04:05:36;;;;;;;13.83;12.13;;;17.70;99.90;;;;;;5091909;28;20461;-63
2022/06/06 04:09:52;;;;;;;13.50;12.03;;;17.80;99.90;;;;;;5110445;27;20563;-63
2022/06/06 04:12:41;;;;;;;15.10;13.03;;;17.80;99.90;;;;;;5109183;28;20534;-63
2022/06/06 04:15:21;;;;;;;14.50;13.00;;;17.80;99.90;;;;;;5109374;28;20461;-63
2022/06/06 04:18:01;;;;;;;15.67;13.10;;;17.80;99.90;;;;;;5109377;28;20762;-62
2022/06/06 04:20:34;;;;;;;15.13;12.90;;;17.80;99.90;;;;;;5103562;28;20514;-63
2022/06/06 04:23:12;;;;;;;16.27;13.80;;;17.80;99.90;;;;;;5107578;28;20514;-64
2022/06/06 04:25:52;;;;;;;17.10;15.30;;;17.80;99.90;;;;;;5100760;28;20560;-62
2022/06/06 04:28:27;;;;;;;19.13;15.63;;;17.80;99.90;;;;;;5110722;28;20461;-63
2022/06/06 04:31:04;;;;;;;17.23;14.90;;;17.80;99.90;;;;;;5095669;28;20556;-63
2022/06/06 04:33:40;;;;;;;18.87;15.43;;;17.80;99.90;;;;;;5104965;28;20507;-63
2022/06/06 04:36:14;;;;;;;18.97;17.07;;;17.90;99.90;;;;;;5109581;28;20493;-62
2022/06/06 04:38:48;;;;;;;21.33;16.50;;;17.90;99.90;;;;;;5109574;28;20981;-63
2022/06/06 04:41:30;;;;;;;19.37;17.30;;;17.90;99.90;;;;;;5109603;28;20474;-63
2022/06/06 04:44:12;;;;;;;19.67;15.97;;;17.90;99.90;;;;;;5098219;28;20485;-63
2022/06/06 04:46:47;;;;;;;18.90;16.80;;;17.90;99.90;;;;;;5104780;28;20453;-63
2022/06/06 04:49:15;;;;;;;18.83;16.73;;;17.90;99.90;;;;;;5108916;28;20468;-65
2022/06/06 04:51:45;;;;;;;23.23;15.90;;;17.90;99.90;;;;;;5110052;28;20457;-63
2022/06/06 04:54:17;;;;;;;18.37;15.43;;;17.90;99.90;;;;;;5092839;28;20478;-64
2022/06/06 04:56:47;;;;;;;19.03;15.03;;;17.90;99.90;;;;;;5081936;28;20458;-63
2022/06/06 04:59:16;;;;;;;17.67;14.20;;;17.80;99.90;;;;;;5106158;28;20504;-65
2022/06/06 05:01:44;;;;;;;18.20;14.70;;;17.80;99.90;;;;;;5087974;28;20458;-63
2022/06/06 05:04:11;;;;;;;17.90;14.60;;;17.80;99.90;;;;;;5097786;28;20481;-63
2022/06/06 05:07:05;;;;;;;15.93;13.60;;;17.80;99.90;;;;;;5108435;28;20526;-64
2022/06/06 05:09:55;;;;;;;17.97;13.33;;;17.80;99.90;;;;;;5105590;28;20560;-63
2022/06/06 05:12:47;;;;;;;16.20;13.77;;;17.80;99.90;;;;;;5099333;28;20521;-63
2022/06/06 05:15:30;;;;;;;17.00;12.60;;;17.80;99.90;;;;;;5074889;28;20996;-63
2022/06/06 05:18:32;;;;;;;16.43;14.10;;;17.80;99.90;;;;;;5098579;28;20451;-63
2022/06/06 05:21:16;;;;;;;18.47;14.13;;;17.90;99.90;;;;;;5095875;28;20454;-63
2022/06/06 05:24:15;;;;;;;16.10;13.00;;;17.90;99.90;;;;;;5089066;28;20485;-63
2022/06/06 05:27:05;;;;;;;14.70;12.43;;;18.00;99.90;;;;;;5094622;28;20458;-62
2022/06/06 05:29:56;;;;;;;16.10;13.33;;;18.00;99.90;;;;;;5089311;28;21006;-62
2022/06/06 05:32:41;;;;;;;14.70;12.67;;;18.00;99.90;;;;;;5087464;28;20481;-62
2022/06/06 05:35:19;;;;;;;13.47;12.00;;;18.10;99.90;;;;;;5092344;28;20862;-63
2022/06/06 05:37:59;;;;;;;14.47;10.83;;;18.00;99.90;;;;;;5092554;28;20552;-62
2022/06/06 05:40:36;;;;;;;14.90;12.33;;;18.00;99.70;;;;;;5086314;28;20474;-62
2022/06/06 05:43:36;;;;;;;13.67;10.90;;;18.00;99.50;;;;;;5075703;28;20496;-63
2022/06/06 05:46:17;;;;;;;16.80;11.97;;;18.10;99.40;;;;;;5068766;28;20459;-62
2022/06/06 05:49:06;;;;;;;11.80;9.90;;;18.10;99.20;;;;;;5101121;28;20531;-63
2022/06/06 05:51:45;;;;;;;14.83;9.87;;;18.10;99.00;;;;;;5104498;28;20451;-63
2022/06/06 05:54:24;;;;;;;9.97;8.67;;;18.10;98.60;;;;;;5091392;28;20546;-62
2022/06/06 05:57:27;;;;;;;11.37;9.63;;;18.10;98.40;;;;;;5098550;28;20491;-62
2022/06/06 06:00:10;;;;;;;10.90;9.77;;;18.10;98.30;;;;;;5096518;28;20455;-65
2022/06/06 06:03:17;;;;;;;11.50;8.90;;;18.30;98.00;;;;;;5110275;28;20477;-63
2022/06/06 06:06:08;;;;;;;13.80;8.57;;;18.50;97.60;;;;;;5095034;28;20489;-65
2022/06/06 06:09:05;;;;;;;11.67;9.80;;;18.60;97.10;;;;;;5094098;28;20923;-63
2022/06/06 06:11:48;;;;;;;13.40;9.27;;;18.80;96.70;;;;;;5066800;28;20500;-63
2022/06/06 06:14:26;;;;;;;11.43;9.67;;;18.90;96.50;;;;;;5096512;28;21034;-68
2022/06/06 06:16:58;;;;;;;12.93;10.40;;;18.90;96.10;;;;;;5090077;28;20446;-64
2022/06/06 06:19:32;;;;;;;12.90;10.23;;;18.90;95.90;;;;;;5076357;28;20457;-63
2022/06/06 06:22:03;;;;;;;13.37;11.27;;;18.80;95.80;;;;;;5094570;28;21031;-63
2022/06/06 06:24:35;;;;;;;14.10;12.10;;;18.80;95.70;;;;;;5093847;28;20462;-62
2022/06/06 06:27:04;;;;;;;14.13;11.93;;;18.80;95.80;;;;;;5093688;28;20545;-63
2022/06/06 06:29:31;;;;;;;15.83;13.10;;;18.80;95.70;;;;;;5091325;28;20569;-63
2022/06/06 06:32:19;;;;;;;18.97;15.33;;;18.90;95.70;;;;;;5072952;28;20445;-65
2022/06/06 06:35:03;;;;;;;16.97;14.03;;;18.90;95.60;;;;;;5062555;28;20485;-63
2022/06/06 06:37:43;;;;;;;15.83;13.17;;;19.00;95.70;;;;;;5093539;28;20549;-63
2022/06/06 06:40:25;;;;;;;15.93;13.43;;;19.10;95.60;;;;;;5093596;28;20951;-63
2022/06/06 06:43:04;;;;;;;17.40;14.67;;;19.30;95.20;;;;;;5094804;28;20451;-62
2022/06/06 06:45:37;;;;;;;18.00;15.17;;;19.50;94.90;;;;;;5093513;28;20458;-63
2022/06/06 06:48:11;;;;;;;15.53;13.90;;;19.70;94.40;;;;;;5082374;28;20522;-64
2022/06/06 06:50:48;;;;;;;14.83;13.23;;;20.00;93.60;;;;;;5092553;28;20459;-63
2022/06/06 06:53:45;;;;;;;18.70;14.57;;;20.10;93.00;;;;;;5082047;28;20885;-63
2022/06/06 06:56:30;;;;;;;15.33;13.73;;;20.30;92.70;;;;;;5070892;28;20450;-62
2022/06/06 06:59:10;;;;;;;14.37;12.87;;;20.50;92.00;;;;;;5074142;28;20440;-63
2022/06/06 07:08:32;;;;;;;13.30;12.00;;;20.70;91.10;;;;;;5075697;28;20827;-63
2022/06/06 07:10:23;;;;;;;12.77;11.33;;;20.80;89.90;;;;;;5087688;28;20466;-64
2022/06/06 07:13:06;;;;;;;15.17;11.83;;;20.60;90.00;;;;;;5072733;28;21065;-62
2022/06/06 07:15:41;;;;;;;13.13;11.93;;;20.40;90.20;;;;;;5073597;28;20480;-63
2022/06/06 07:18:11;;;;;;;11.57;10.37;;;20.20;90.30;;;;;;5065711;28;20863;-62
2022/06/06 07:20:41;;;;;;;12.93;10.43;;;20.10;90.60;;;;;;5068462;28;20959;-64
2022/06/06 07:23:12;;;;;;;11.40;10.20;;;20.10;90.40;;;;;;5072730;28;21037;-61
2022/06/06 07:25:42;;;;;;;10.77;9.33;;;20.30;90.20;;;;;;5073588;28;20489;-63
2022/06/06 07:28:12;;;;;;;12.10;9.93;;;20.50;89.20;;;;;;5065883;28;20452;-63
2022/06/06 07:30:44;;;;;;;10.70;9.50;;;20.70;87.30;;;;;;5066387;28;21216;-63
2022/06/06 07:33:48;;;;;;;11.03;9.97;;;20.90;86.10;;;;;;5060654;28;20581;-63
2022/06/06 07:36:24;;;;;;;10.20;9.10;;;21.00;84.80;;;;;;5072348;28;20817;-63
2022/06/06 07:39:17;;;;;;;10.13;9.13;;;21.00;84.20;;;;;;5070407;28;20487;-63
2022/06/06 07:42:01;;;;;;;10.90;8.33;;;21.00;83.20;;;;;;5072877;28;20445;-63
2022/06/06 07:44:59;;;;;;;9.37;8.40;;;21.20;82.80;;;;;;5071707;28;20488;-64
2022/06/06 07:47:37;;;;;;;8.77;7.80;;;21.40;82.00;;;;;;5073644;28;20459;-62
2022/06/06 07:50:10;;;;;;;9.67;8.67;;;21.70;78.90;;;;;;5073330;28;20458;-63
2022/06/06 07:52:41;;;;;;;8.73;7.83;;;21.80;76.50;;;;;;5092189;28;20571;-63
2022/06/06 07:55:16;;;;;;;9.27;8.43;;;21.90;75.60;;;;;;5092172;28;20949;-62
2022/06/06 07:57:49;;;;;;;9.30;8.37;;;21.90;74.50;;;;;;5071553;28;20437;-63
2022/06/06 08:00:19;;;;;;;10.03;9.03;;;22.00;74.00;;;;;;5081791;28;20549;-63
2022/06/06 08:02:56;;;;;;;9.80;8.80;;;22.10;73.70;;;;;;5093027;28;20469;-62
2022/06/06 08:05:45;;;;;;;10.17;9.20;;;22.00;73.10;;;;;;5092589;28;20454;-62
2022/06/06 08:08:23;;;;;;;9.60;8.70;;;21.90;72.90;;;;;;5092917;28;20456;-63
2022/06/06 08:10:52;;;;;;;9.87;8.87;;;21.90;72.90;;;;;;5093600;28;20513;-63
2022/06/06 08:13:32;;;;;;;10.03;9.13;;;22.00;72.50;;;;;;5092957;28;20469;-62
2022/06/06 08:16:13;;;;;;;8.77;7.97;;;22.10;72.10;;;;;;5072939;28;20443;-62
2022/06/06 08:19:25;;;;;;;9.10;8.20;;;22.20;71.30;;;;;;5073152;28;20428;-63
2022/06/06 08:21:54;;;;;;;9.00;8.00;;;22.10;71.00;;;;;;4998203;28;20925;-62
2022/06/06 08:24:25;;;;;;;8.90;8.00;;;22.20;70.90;;;;;;5065542;28;20469;-62
2022/06/06 08:26:55;;;;;;;7.17;6.47;;;22.30;70.20;;;;;;5072688;28;20497;-64
2022/06/06 08:29:23;;;;;;;7.33;6.63;;;22.50;68.90;;;;;;5072772;28;20563;-61
2022/06/06 08:31:51;;;;;;;7.60;7.00;;;22.60;67.70;;;;;;5072571;28;20457;-63
2022/06/06 08:34:18;;;;;;;7.00;6.30;;;22.80;66.30;;;;;;5072995;28;20611;-63
2022/06/06 08:37:17;;;;;;;6.10;5.60;;;22.90;65.50;;;;;;5072875;28;20454;-63
2022/06/06 08:39:59;;;;;;;6.60;6.00;;;23.20;64.40;;;;;;5062613;28;20450;-63
2022/06/06 08:42:40;;;;;;;6.17;5.57;;;23.30;63.30;;;;;;5072375;28;20471;-62
2022/06/06 08:45:23;;;;;;;7.30;6.00;;;23.20;63.00;;;;;;5072774;28;20431;-62
2022/06/06 08:48:02;;;;;;;5.90;4.90;;;23.10;63.00;;;;;;5072477;28;20794;-63
2022/06/06 08:51:00;;;;;;;6.13;5.37;;;23.00;63.30;;;;;;5072197;28;20466;-63
2022/06/06 08:53:59;;;;;;;5.93;5.43;;;22.90;63.50;;;;;;5072086;28;20520;-63
2022/06/06 08:56:48;;;;;;;6.20;5.03;;;22.80;63.80;;;;;;5075474;28;20431;-62
2022/06/06 09:00:02;;;;;;;5.80;5.20;;;23.10;63.70;;;;;;5073141;28;20485;-62
2022/06/06 09:03:19;;;;;;;6.40;4.83;;;23.30;62.70;;;;;;5066584;28;20821;-62
2022/06/06 09:06:20;;;;;;;5.50;5.00;;;23.60;61.40;;;;;;5055724;28;20494;-62
2022/06/06 09:09:25;;;;;;;4.83;4.40;;;23.70;60.30;;;;;;5073851;28;20874;-62
2022/06/06 09:12:26;;;;;;;4.93;4.53;;;23.80;59.80;;;;;;5066448;28;20540;-63
2022/06/06 09:15:12;;;;;;;5.33;3.90;;;23.80;58.90;;;;;;5096248;28;20784;-62
2022/06/06 09:18:09;;;;;;;4.20;3.80;;;23.90;58.40;;;;;;5096082;28;20424;-62
2022/06/06 09:21:07;;;;;;;5.87;3.87;;;24.10;58.00;;;;;;5095778;28;20866;-62
2022/06/06 09:24:05;;;;;;;4.23;3.83;;;24.60;56.40;;;;;;5074569;28;20535;-62
2022/06/06 09:26:40;;;;;;;3.60;3.30;;;24.80;55.20;;;;;;5085772;28;20459;-63
2022/06/06 09:29:52;;;;;;;3.90;3.50;;;24.80;54.20;;;;;;5097362;22;20447;-57
2022/06/06 09:33:01;;;;;;;4.07;3.20;;;24.80;53.50;;;;;;5075723;28;20520;-59
2022/06/06 09:36:07;;;;;;;3.90;3.60;;;24.70;52.70;;;;;;5035123;28;20467;-60
2022/06/06 09:39:04;;;;;;;4.30;3.17;;;24.70;52.70;;;;;;5063100;28;20879;-60
2022/06/06 09:41:38;;;;;;;3.57;3.17;;;24.90;52.40;;;;;;5075512;28;20446;-59
2022/06/06 09:44:22;;;;;;;3.67;3.37;;;24.80;52.20;;;;;;5075571;28;20431;-59
2022/06/06 09:47:30;;;;;;;4.47;3.40;;;24.50;52.30;;;;;;5075670;28;20425;-60
2022/06/06 09:50:31;;;;;;;4.27;3.70;;;24.30;52.70;;;;;;5048893;28;20478;-59
2022/06/06 09:53:28;;;;;;;4.30;3.17;;;24.10;53.00;;;;;;5058484;28;20463;-58
2022/06/06 10:00:11;;;;;;;2.97;2.77;;;24.20;52.10;;;;;;5044285;28;20858;-59
2022/06/06 10:03:16;;;;;;;2.50;2.23;;;24.10;51.60;;;;;;5067596;28;20471;-59
2022/06/06 10:06:22;;;;;;;2.27;2.07;;;23.70;50.70;;;;;;5042805;28;20454;-60
2022/06/06 10:09:23;;;;;;;3.97;1.97;;;23.40;50.50;;;;;;5055409;28;20452;-60
2022/06/06 10:12:15;;;;;;;2.07;1.80;;;23.50;50.10;;;;;;5057850;28;20829;-59
2022/06/06 10:14:57;;;;;;;2.00;1.90;;;23.60;50.00;;;;;;5057544;28;20433;-59
2022/06/06 10:17:39;;;;;;;2.60;2.10;;;23.70;49.50;;;;;;5055171;28;20460;-58
2022/06/06 10:20:21;;;;;;;2.23;2.03;;;24.00;49.20;;;;;;5055162;28;21025;-58
2022/06/06 10:23:17;;;;;;;4.53;2.13;;;24.10;48.30;;;;;;5068671;28;20512;-60
2022/06/06 10:26:15;;;;;;;2.50;2.30;;;24.10;48.10;;;;;;5034095;28;20503;-60
2022/06/06 10:29:17;;;;;;;3.20;2.40;;;23.90;48.30;;;;;;5041302;28;20983;-58
2022/06/06 10:32:11;;;;;;;3.20;2.27;;;23.80;48.70;;;;;;5055131;28;20490;-59
2022/06/06 10:35:02;;;;;;;2.80;2.03;;;23.70;49.60;;;;;;5055540;28;20448;-59
2022/06/06 10:37:53;;;;;;;2.73;1.93;;;23.60;50.90;;;;;;5054676;28;20955;-59
2022/06/06 10:40:45;;;;;;;4.43;2.17;;;23.50;51.70;;;;;;5070955;28;20524;-59
2022/06/06 10:43:45;;;;;;;2.50;2.30;;;23.70;51.80;;;;;;5075260;28;20533;-58
2022/06/06 10:46:22;;;;;;;4.80;2.37;;;24.00;51.50;;;;;;5069451;28;20854;-58
2022/06/06 10:49:03;;;;;;;2.47;2.07;;;24.50;51.10;;;;;;5057131;28;20451;-57
2022/06/06 10:52:03;;;;;;;2.13;1.70;;;25.00;50.50;;;;;;5074267;28;20845;-57
2022/06/06 10:55:10;;;;;;;2.27;1.90;;;25.00;48.20;;;;;;5073442;28;20486;-58
2022/06/06 10:58:19;;;;;;;2.47;1.90;;;24.60;47.00;;;;;;5025044;28;20452;-57
2022/06/06 11:01:08;;;;;;;7.33;2.10;;;24.40;47.10;;;;;;5035994;28;20981;-56
2022/06/06 11:04:08;;;;;;;2.53;1.53;;;24.40;46.60;;;;;;5033736;28;20433;-57
2022/06/06 11:07:17;;;;;;;3.60;2.13;;;24.30;45.70;;;;;;4999488;28;20788;-56
2022/06/06 11:10:12;;;;;;;5.17;2.37;;;24.10;46.00;;;;;;5033694;28;20956;-59
2022/06/06 11:13:18;;;;;;;3.40;2.07;;;24.20;46.30;;;;;;5054828;28;20464;-58
2022/06/06 11:16:12;;;;;;;2.10;2.00;;;24.50;46.10;;;;;;5059900;28;20468;-57
2022/06/06 11:19:02;;;;;;;1.77;1.67;;;24.70;45.50;;;;;;5032786;28;20836;-58
2022/06/06 11:22:09;;;;;;;1.83;1.50;;;24.70;44.70;;;;;;5033413;28;20488;-58
2022/06/06 11:24:41;;;;;;;3.03;1.90;;;24.80;44.20;;;;;;5032291;28;20515;-58
2022/06/06 11:27:37;;;;;;;1.60;1.50;;;24.80;44.20;;;;;;5053124;28;20491;-58
2022/06/06 11:30:17;;;;;;;4.70;2.00;;;25.10;44.60;;;;;;5033422;28;20903;-58
2022/06/06 11:33:29;;;;;;;2.80;1.30;;;25.40;44.00;;;;;;5033007;28;20429;-58
2022/06/06 11:36:19;;;;;;;2.87;2.57;;;25.70;42.20;;;;;;5032950;28;20439;-58
2022/06/06 11:39:18;;;;;;;2.73;1.40;;;25.80;41.40;;;;;;5052588;28;21027;-57
2022/06/06 11:42:09;;;;;;;2.80;1.40;;;26.00;40.90;;;;;;5072929;28;20977;-59
2022/06/06 11:45:11;;;;;;;1.97;1.23;;;26.20;40.30;;;;;;5052921;28;20987;-59
2022/06/06 11:47:50;;;;;;;1.87;1.10;;;26.30;39.10;;;;;;5052736;28;20923;-58
2022/06/06 11:50:54;;;;;;;1.70;1.10;;;26.40;38.10;;;;;;5052510;28;20487;-58
2022/06/06 11:53:59;;;;;;;1.03;0.93;;;26.50;36.90;;;;;;5033078;28;20459;-58
2022/06/06 11:56:59;;;;;;;1.60;1.30;;;26.60;36.80;;;;;;5041292;28;20484;-58
2022/06/06 11:59:56;;;;;;;1.90;1.63;;;26.70;36.60;;;;;;5064181;28;20483;-58
2022/06/06 12:03:00;;;;;;;2.03;1.30;;;26.50;36.70;;;;;;5046136;28;20463;-59
2022/06/06 12:06:09;;;;;;;1.17;1.07;;;26.40;36.60;;;;;;5035749;28;20497;-58
2022/06/06 12:09:06;;;;;;;2.23;1.13;;;26.90;36.00;;;;;;5022338;28;20464;-59
2022/06/06 12:12:04;;;;;;;1.63;1.23;;;27.50;35.20;;;;;;5069044;28;20994;-59
2022/06/06 12:14:57;;;;;;;2.47;1.10;;;27.90;34.40;;;;;;5072502;28;20430;-59
2022/06/06 12:17:43;;;;;;;2.50;1.40;;;28.00;34.40;;;;;;5035146;28;20477;-58
2022/06/06 12:20:37;;;;;;;1.60;1.33;;;28.30;34.20;;;;;;5072421;28;20463;-59
2022/06/06 12:23:12;;;;;;;1.63;1.50;;;28.50;33.50;;;;;;5064392;28;20455;-59
2022/06/06 12:25:57;;;;;;;3.10;1.67;;;28.20;33.10;;;;;;5072549;28;20473;-57
2022/06/06 12:29:05;;;;;;;4.67;1.70;;;27.50;34.00;;;;;;5072294;28;20458;-59
2022/06/06 12:31:48;;;;;;;1.83;1.73;;;27.30;34.50;;;;;;5070801;28;20506;-60
2022/06/06 12:34:21;;;;;;;4.83;1.57;;;27.70;34.30;;;;;;5076373;28;20453;-60
2022/06/06 12:36:56;;;;;;;2.07;1.30;;;28.00;33.80;;;;;;5076014;28;20522;-60
2022/06/06 12:39:34;;;;;;;1.70;1.40;;;28.20;33.80;;;;;;5075804;28;20465;-59
2022/06/06 12:42:11;;;;;;;2.13;1.40;;;28.20;33.90;;;;;;5076218;28;20438;-60
2022/06/06 12:45:13;;;;;;;2.10;1.70;;;28.00;34.10;;;;;;5075685;28;20430;-59
2022/06/06 12:47:55;;;;;;;2.43;1.60;;;27.40;34.80;;;;;;5076212;28;20979;-59
2022/06/06 12:50:35;;;;;;;1.50;1.37;;;26.80;35.70;;;;;;5076282;28;20536;-59
2022/06/06 12:53:35;;;;;;;2.20;1.67;;;26.40;36.20;;;;;;5075885;28;20943;-59
2022/06/06 12:56:20;;;;;;;1.60;1.30;;;25.80;37.10;;;;;;5076128;28;20492;-59
2022/06/06 12:58:56;;;;;;;1.77;1.67;;;25.30;38.10;;;;;;5075928;28;20839;-59
2022/06/06 13:01:40;;;;;;;1.57;1.43;;;25.00;38.70;;;;;;5076163;28;20758;-59
2022/06/06 13:04:47;;;;;;;1.70;1.47;;;25.00;38.90;;;;;;5076163;28;20419;-58
2022/06/06 13:07:35;;;;;;;1.20;1.10;;;25.10;39.10;;;;;;5075888;28;20484;-58
2022/06/06 13:10:23;;;;;;;2.20;1.50;;;25.40;38.50;;;;;;5075849;28;20470;-60
2022/06/06 13:13:15;;;;;;;1.50;1.20;;;25.60;38.00;;;;;;5075358;28;20431;-59
2022/06/06 13:15:55;;;;;;;1.77;1.40;;;25.80;37.40;;;;;;5075527;28;20480;-58
2022/06/06 13:18:44;;;;;;;1.47;1.03;;;25.90;36.90;;;;;;5075341;28;20968;-60
2022/06/06 13:21:21;;;;;;;2.40;1.17;;;25.90;36.80;;;;;;5075184;28;20546;-58
2022/06/06 13:24:08;;;;;;;1.83;1.30;;;25.80;36.70;;;;;;5075134;28;20802;-59
2022/06/06 13:26:47;;;;;;;3.50;1.40;;;25.80;36.60;;;;;;5075448;28;20434;-60
2022/06/06 13:29:27;;;;;;;4.47;1.73;;;25.90;36.70;;;;;;5074822;28;20467;-59
2022/06/06 13:32:06;;;;;;;2.43;1.40;;;26.10;36.70;;;;;;5075021;28;20499;-59
2022/06/06 13:34:53;;;;;;;2.27;1.33;;;26.30;36.60;;;;;;5075362;28;20485;-59
2022/06/06 13:37:35;;;;;;;1.40;1.30;;;26.20;36.90;;;;;;5075457;28;20450;-59
2022/06/06 13:40:26;;;;;;;1.13;1.03;;;26.00;37.50;;;;;;5075099;28;20868;-59
2022/06/06 13:43:29;;;;;;;2.80;1.30;;;25.60;38.00;;;;;;5074852;28;20419;-59
2022/06/06 13:46:08;;;;;;;1.60;1.10;;;25.00;38.60;;;;;;5034420;28;20472;-59
2022/06/06 13:48:52;;;;;;;2.20;1.03;;;24.40;39.30;;;;;;5074744;28;20496;-59
2022/06/06 13:51:38;;;;;;;1.90;1.17;;;24.10;39.90;;;;;;5074856;28;20474;-59
2022/06/06 13:54:07;;;;;;;1.60;1.50;;;23.60;40.70;;;;;;5064720;28;20487;-59
2022/06/06 13:57:00;;;;;;;2.60;1.60;;;23.30;41.80;;;;;;5072100;28;20530;-59
2022/06/06 13:59:43;;;;;;;1.77;1.40;;;23.00;42.90;;;;;;5071069;28;20847;-57
2022/06/06 14:02:23;;;;;;;3.27;1.87;;;22.70;44.30;;;;;;5034539;28;20421;-57
2022/06/06 14:05:10;;;;;;;1.63;1.10;;;22.30;46.70;;;;;;5034910;28;20429;-59
2022/06/06 14:07:54;;;;;;;2.07;1.53;;;21.80;49.80;;;;;;5034522;28;20481;-60
2022/06/06 14:10:22;;;;;;;3.50;1.53;;;21.30;53.80;;;;;;5054274;28;20481;-59
2022/06/06 14:13:04;;;;;;;3.77;1.60;;;20.60;56.60;;;;;;5054838;28;20454;-59
2022/06/06 14:15:39;;;;;;;2.77;1.53;;;20.10;59.10;;;;;;5054337;28;20515;-59
2022/06/06 14:18:11;;;;;;;5.37;1.70;;;19.80;61.00;;;;;;5054418;28;20483;-59
2022/06/06 14:20:45;;;;;;;6.20;1.63;;;19.70;62.40;;;;;;5054714;28;20455;-59